sensor_id;sensor_type;location;lat;lon;timestamp;P1;durP1;ratioP1;P2;durP2;ratioP2
51523;SDS011;37610;51.790;21.590;2023-08-31T00:00:18;7.40;;;5.60;;
51523;SDS011;37610;51.790;21.590;2023-08-31T00:04:40;7.40;;;5.50;;
51523;SDS011;37610;51.790;21.590;2023-08-31T00:08:41;8.30;;;6.10;;
51523;SDS011;37610;51.790;21.590;2023-08-31T00:12:43;12.40;;;6.10;;
51523;SDS011;37610;51.790;21.590;2023-08-31T00:16:44;7.90;;;6.00;;
51523;SDS011;37610;51.790;21.590;2023-08-31T00:20:48;11.60;;;5.90;;
51523;SDS011;37610;51.790;21.590;2023-08-31T00:24:50;10.20;;;5.80;;
51523;SDS011;37610;51.790;21.590;2023-08-31T00:28:52;6.80;;;5.80;;
51523;SDS011;37610;51.790;21.590;2023-08-31T00:32:54;8.00;;;6.40;;
51523;SDS011;37610;51.790;21.590;2023-08-31T00:36:56;9.30;;;6.30;;
51523;SDS011;37610;51.790;21.590;2023-08-31T00:40:58;9.20;;;6.30;;
51523;SDS011;37610;51.790;21.590;2023-08-31T00:44:59;7.50;;;6.00;;
51523;SDS011;37610;51.790;21.590;2023-08-31T00:49:01;10.20;;;5.90;;
51523;SDS011;37610;51.790;21.590;2023-08-31T00:53:05;7.90;;;5.70;;
51523;SDS011;37610;51.790;21.590;2023-08-31T00:57:07;8.40;;;6.00;;
51523;SDS011;37610;51.790;21.590;2023-08-31T01:05:44;7.50;;;6.40;;
51523;SDS011;37610;51.790;21.590;2023-08-31T01:14:07;8.00;;;6.20;;
51523;SDS011;37610;51.790;21.590;2023-08-31T01:18:14;8.80;;;6.40;;
51523;SDS011;37610;51.790;21.590;2023-08-31T01:22:21;8.60;;;5.80;;
51523;SDS011;37610;51.790;21.590;2023-08-31T01:26:26;8.10;;;6.30;;
51523;SDS011;37610;51.790;21.590;2023-08-31T01:30:31;10.10;;;6.80;;
51523;SDS011;37610;51.790;21.590;2023-08-31T01:34:33;7.70;;;6.00;;
51523;SDS011;37610;51.790;21.590;2023-08-31T01:38:38;10.80;;;6.10;;
51523;SDS011;37610;51.790;21.590;2023-08-31T01:42:44;6.80;;;5.70;;
51523;SDS011;37610;51.790;21.590;2023-08-31T01:46:52;7.60;;;6.40;;
51523;SDS011;37610;51.790;21.590;2023-08-31T01:50:57;8.40;;;6.00;;
51523;SDS011;37610;51.790;21.590;2023-08-31T01:54:59;11.10;;;10.00;;
51523;SDS011;37610;51.790;21.590;2023-08-31T01:59:00;18.40;;;14.20;;
51523;SDS011;37610;51.790;21.590;2023-08-31T02:03:02;19.00;;;14.30;;
51523;SDS011;37610;51.790;21.590;2023-08-31T02:07:03;11.70;;;10.40;;
51523;SDS011;37610;51.790;21.590;2023-08-31T02:11:05;11.70;;;8.30;;
51523;SDS011;37610;51.790;21.590;2023-08-31T02:15:06;9.90;;;7.30;;
51523;SDS011;37610;51.790;21.590;2023-08-31T02:19:08;11.70;;;7.10;;
51523;SDS011;37610;51.790;21.590;2023-08-31T02:23:10;12.00;;;7.10;;
51523;SDS011;37610;51.790;21.590;2023-08-31T02:27:13;8.00;;;5.80;;
51523;SDS011;37610;51.790;21.590;2023-08-31T02:31:16;14.20;;;6.70;;
51523;SDS011;37610;51.790;21.590;2023-08-31T02:35:18;15.40;;;7.30;;
51523;SDS011;37610;51.790;21.590;2023-08-31T02:39:20;12.80;;;6.50;;
51523;SDS011;37610;51.790;21.590;2023-08-31T02:43:21;11.90;;;6.10;;
51523;SDS011;37610;51.790;21.590;2023-08-31T02:47:23;13.70;;;6.90;;
51523;SDS011;37610;51.790;21.590;2023-08-31T02:51:24;9.90;;;5.50;;
51523;SDS011;37610;51.790;21.590;2023-08-31T02:55:26;6.80;;;5.20;;
51523;SDS011;37610;51.790;21.590;2023-08-31T02:59:27;6.80;;;5.50;;
51523;SDS011;37610;51.790;21.590;2023-08-31T03:03:29;9.80;;;6.30;;
51523;SDS011;37610;51.790;21.590;2023-08-31T03:07:30;8.60;;;6.30;;
51523;SDS011;37610;51.790;21.590;2023-08-31T03:11:32;10.40;;;5.80;;
51523;SDS011;37610;51.790;21.590;2023-08-31T03:15:33;10.10;;;5.90;;
51523;SDS011;37610;51.790;21.590;2023-08-31T03:19:35;9.10;;;6.70;;
51523;SDS011;37610;51.790;21.590;2023-08-31T03:23:36;10.70;;;6.80;;
51523;SDS011;37610;51.790;21.590;2023-08-31T03:27:38;9.80;;;6.90;;
51523;SDS011;37610;51.790;21.590;2023-08-31T03:31:39;8.90;;;6.40;;
51523;SDS011;37610;51.790;21.590;2023-08-31T03:35:41;11.00;;;7.50;;
51523;SDS011;37610;51.790;21.590;2023-08-31T03:39:42;17.20;;;6.90;;
51523;SDS011;37610;51.790;21.590;2023-08-31T03:43:44;14.80;;;7.50;;
51523;SDS011;37610;51.790;21.590;2023-08-31T03:47:46;7.30;;;6.50;;
51523;SDS011;37610;51.790;21.590;2023-08-31T03:51:47;8.70;;;6.70;;
51523;SDS011;37610;51.790;21.590;2023-08-31T03:55:49;13.70;;;6.70;;
51523;SDS011;37610;51.790;21.590;2023-08-31T03:59:51;10.40;;;7.00;;
51523;SDS011;37610;51.790;21.590;2023-08-31T04:03:53;9.00;;;6.70;;
51523;SDS011;37610;51.790;21.590;2023-08-31T04:07:54;8.70;;;6.00;;
51523;SDS011;37610;51.790;21.590;2023-08-31T04:11:56;6.50;;;5.80;;
51523;SDS011;37610;51.790;21.590;2023-08-31T04:15:57;8.10;;;6.10;;
51523;SDS011;37610;51.790;21.590;2023-08-31T04:19:58;15.00;;;7.40;;
51523;SDS011;37610;51.790;21.590;2023-08-31T04:24:00;12.50;;;6.80;;
51523;SDS011;37610;51.790;21.590;2023-08-31T04:28:02;9.10;;;6.20;;
51523;SDS011;37610;51.790;21.590;2023-08-31T04:32:03;8.70;;;5.90;;
51523;SDS011;37610;51.790;21.590;2023-08-31T04:36:06;10.70;;;6.10;;
51523;SDS011;37610;51.790;21.590;2023-08-31T04:40:08;8.30;;;5.60;;
51523;SDS011;37610;51.790;21.590;2023-08-31T04:44:10;9.50;;;6.60;;
51523;SDS011;37610;51.790;21.590;2023-08-31T04:48:12;8.00;;;6.00;;
51523;SDS011;37610;51.790;21.590;2023-08-31T04:52:15;6.80;;;5.50;;
51523;SDS011;37610;51.790;21.590;2023-08-31T04:56:17;9.30;;;5.90;;
51523;SDS011;37610;51.790;21.590;2023-08-31T05:00:18;8.80;;;6.20;;
51523;SDS011;37610;51.790;21.590;2023-08-31T05:04:20;9.90;;;6.60;;
51523;SDS011;37610;51.790;21.590;2023-08-31T05:08:22;10.80;;;6.10;;
51523;SDS011;37610;51.790;21.590;2023-08-31T05:12:24;7.40;;;5.30;;
51523;SDS011;37610;51.790;21.590;2023-08-31T05:16:25;6.80;;;4.70;;
51523;SDS011;37610;51.790;21.590;2023-08-31T05:20:27;7.70;;;5.30;;
51523;SDS011;37610;51.790;21.590;2023-08-31T05:24:28;10.30;;;5.60;;
51523;SDS011;37610;51.790;21.590;2023-08-31T05:28:30;7.30;;;5.20;;
51523;SDS011;37610;51.790;21.590;2023-08-31T05:32:31;7.30;;;5.00;;
51523;SDS011;37610;51.790;21.590;2023-08-31T05:36:33;9.90;;;5.40;;
51523;SDS011;37610;51.790;21.590;2023-08-31T05:40:34;9.20;;;5.50;;
51523;SDS011;37610;51.790;21.590;2023-08-31T05:44:36;9.40;;;5.10;;
51523;SDS011;37610;51.790;21.590;2023-08-31T05:48:37;9.00;;;5.30;;
51523;SDS011;37610;51.790;21.590;2023-08-31T05:52:39;7.90;;;5.30;;
51523;SDS011;37610;51.790;21.590;2023-08-31T05:56:45;9.00;;;5.50;;
51523;SDS011;37610;51.790;21.590;2023-08-31T06:00:47;6.90;;;5.40;;
51523;SDS011;37610;51.790;21.590;2023-08-31T06:04:48;10.50;;;5.40;;
51523;SDS011;37610;51.790;21.590;2023-08-31T06:08:50;12.20;;;5.10;;
51523;SDS011;37610;51.790;21.590;2023-08-31T06:12:51;10.90;;;5.50;;
51523;SDS011;37610;51.790;21.590;2023-08-31T06:16:53;10.70;;;6.10;;
51523;SDS011;37610;51.790;21.590;2023-08-31T06:20:55;8.00;;;6.20;;
51523;SDS011;37610;51.790;21.590;2023-08-31T06:24:57;10.50;;;6.90;;
51523;SDS011;37610;51.790;21.590;2023-08-31T06:28:58;9.40;;;6.10;;
51523;SDS011;37610;51.790;21.590;2023-08-31T06:33:00;7.30;;;5.00;;
51523;SDS011;37610;51.790;21.590;2023-08-31T06:37:02;10.50;;;5.40;;
51523;SDS011;37610;51.790;21.590;2023-08-31T06:41:04;8.80;;;5.00;;
51523;SDS011;37610;51.790;21.590;2023-08-31T06:45:06;7.00;;;5.10;;
51523;SDS011;37610;51.790;21.590;2023-08-31T06:49:09;11.10;;;6.00;;
51523;SDS011;37610;51.790;21.590;2023-08-31T06:53:11;7.20;;;5.00;;
51523;SDS011;37610;51.790;21.590;2023-08-31T06:57:13;5.70;;;4.50;;
51523;SDS011;37610;51.790;21.590;2023-08-31T07:01:14;6.00;;;4.50;;
51523;SDS011;37610;51.790;21.590;2023-08-31T07:05:15;6.20;;;4.20;;
51523;SDS011;37610;51.790;21.590;2023-08-31T07:09:17;5.90;;;4.40;;
51523;SDS011;37610;51.790;21.590;2023-08-31T07:13:18;5.40;;;3.80;;
51523;SDS011;37610;51.790;21.590;2023-08-31T07:17:20;5.30;;;3.50;;
51523;SDS011;37610;51.790;21.590;2023-08-31T07:21:22;5.00;;;3.60;;
51523;SDS011;37610;51.790;21.590;2023-08-31T07:25:23;4.70;;;3.20;;
51523;SDS011;37610;51.790;21.590;2023-08-31T07:29:25;7.80;;;3.70;;
51523;SDS011;37610;51.790;21.590;2023-08-31T07:33:26;7.30;;;3.60;;
51523;SDS011;37610;51.790;21.590;2023-08-31T07:37:28;6.40;;;3.10;;
51523;SDS011;37610;51.790;21.590;2023-08-31T07:41:29;3.60;;;2.50;;
51523;SDS011;37610;51.790;21.590;2023-08-31T07:45:31;5.60;;;3.00;;
51523;SDS011;37610;51.790;21.590;2023-08-31T07:49:32;7.80;;;2.90;;
51523;SDS011;37610;51.790;21.590;2023-08-31T07:53:34;4.80;;;2.80;;
51523;SDS011;37610;51.790;21.590;2023-08-31T07:57:35;3.60;;;2.20;;
51523;SDS011;37610;51.790;21.590;2023-08-31T08:01:38;2.30;;;2.10;;
51523;SDS011;37610;51.790;21.590;2023-08-31T08:05:39;2.70;;;2.40;;
51523;SDS011;37610;51.790;21.590;2023-08-31T08:09:42;5.10;;;2.50;;
51523;SDS011;37610;51.790;21.590;2023-08-31T08:13:43;5.00;;;2.40;;
51523;SDS011;37610;51.790;21.590;2023-08-31T08:17:45;4.80;;;2.20;;
51523;SDS011;37610;51.790;21.590;2023-08-31T08:21:46;4.60;;;2.50;;
51523;SDS011;37610;51.790;21.590;2023-08-31T08:25:48;3.90;;;2.40;;
51523;SDS011;37610;51.790;21.590;2023-08-31T08:29:50;4.60;;;2.50;;
51523;SDS011;37610;51.790;21.590;2023-08-31T08:33:51;2.50;;;2.10;;
51523;SDS011;37610;51.790;21.590;2023-08-31T08:37:53;3.20;;;1.80;;
51523;SDS011;37610;51.790;21.590;2023-08-31T08:41:54;3.80;;;2.20;;
51523;SDS011;37610;51.790;21.590;2023-08-31T08:46:01;3.40;;;1.70;;
51523;SDS011;37610;51.790;21.590;2023-08-31T08:50:06;1.60;;;1.40;;
51523;SDS011;37610;51.790;21.590;2023-08-31T08:58:10;2.20;;;1.40;;
51523;SDS011;37610;51.790;21.590;2023-08-31T09:02:11;2.70;;;1.40;;
51523;SDS011;37610;51.790;21.590;2023-08-31T09:06:13;6.20;;;1.60;;
51523;SDS011;37610;51.790;21.590;2023-08-31T09:10:15;4.10;;;1.60;;
51523;SDS011;37610;51.790;21.590;2023-08-31T09:14:18;2.50;;;1.50;;
51523;SDS011;37610;51.790;21.590;2023-08-31T09:18:24;2.50;;;1.30;;
51523;SDS011;37610;51.790;21.590;2023-08-31T09:22:27;3.50;;;2.00;;
51523;SDS011;37610;51.790;21.590;2023-08-31T09:26:34;5.70;;;1.70;;
51523;SDS011;37610;51.790;21.590;2023-08-31T09:30:38;4.10;;;1.70;;
51523;SDS011;37610;51.790;21.590;2023-08-31T09:34:43;3.40;;;1.00;;
51523;SDS011;37610;51.790;21.590;2023-08-31T09:38:45;2.90;;;1.20;;
51523;SDS011;37610;51.790;21.590;2023-08-31T09:42:49;1.80;;;1.10;;
51523;SDS011;37610;51.790;21.590;2023-08-31T09:46:51;1.70;;;1.20;;
51523;SDS011;37610;51.790;21.590;2023-08-31T09:50:54;2.00;;;1.30;;
51523;SDS011;37610;51.790;21.590;2023-08-31T09:54:57;2.70;;;1.50;;
51523;SDS011;37610;51.790;21.590;2023-08-31T09:59:00;2.60;;;1.10;;
51523;SDS011;37610;51.790;21.590;2023-08-31T10:03:03;3.60;;;1.20;;
51523;SDS011;37610;51.790;21.590;2023-08-31T10:07:05;3.00;;;1.10;;
51523;SDS011;37610;51.790;21.590;2023-08-31T10:11:08;2.00;;;1.00;;
51523;SDS011;37610;51.790;21.590;2023-08-31T10:15:14;2.70;;;1.10;;
51523;SDS011;37610;51.790;21.590;2023-08-31T10:19:19;2.60;;;1.20;;
51523;SDS011;37610;51.790;21.590;2023-08-31T10:23:21;2.20;;;1.20;;
51523;SDS011;37610;51.790;21.590;2023-08-31T10:27:22;1.40;;;0.70;;
51523;SDS011;37610;51.790;21.590;2023-08-31T10:31:28;1.30;;;1.00;;
51523;SDS011;37610;51.790;21.590;2023-08-31T10:35:41;4.70;;;0.70;;
51523;SDS011;37610;51.790;21.590;2023-08-31T10:39:48;1.50;;;0.90;;
51523;SDS011;37610;51.790;21.590;2023-08-31T10:47:55;1.40;;;1.10;;
51523;SDS011;37610;51.790;21.590;2023-08-31T10:52:16;2.20;;;1.30;;
51523;SDS011;37610;51.790;21.590;2023-08-31T10:56:20;1.80;;;0.80;;
51523;SDS011;37610;51.790;21.590;2023-08-31T11:05:01;3.20;;;1.30;;
51523;SDS011;37610;51.790;21.590;2023-08-31T11:09:06;2.50;;;1.30;;
51523;SDS011;37610;51.790;21.590;2023-08-31T11:13:16;2.50;;;1.20;;
51523;SDS011;37610;51.790;21.590;2023-08-31T11:17:19;4.50;;;1.20;;
51523;SDS011;37610;51.790;21.590;2023-08-31T11:21:23;2.00;;;1.10;;
51523;SDS011;37610;51.790;21.590;2023-08-31T11:29:27;2.30;;;1.10;;
51523;SDS011;37610;51.790;21.590;2023-08-31T11:37:38;3.00;;;1.20;;
51523;SDS011;37610;51.790;21.590;2023-08-31T11:41:40;5.30;;;1.30;;
51523;SDS011;37610;51.790;21.590;2023-08-31T11:45:43;2.40;;;1.60;;
51523;SDS011;37610;51.790;21.590;2023-08-31T11:49:45;2.20;;;1.50;;
51523;SDS011;37610;51.790;21.590;2023-08-31T11:53:47;2.00;;;1.10;;
51523;SDS011;37610;51.790;21.590;2023-08-31T11:57:53;2.50;;;1.20;;
51523;SDS011;37610;51.790;21.590;2023-08-31T12:01:55;4.50;;;1.40;;
51523;SDS011;37610;51.790;21.590;2023-08-31T12:05:57;1.50;;;1.00;;
51523;SDS011;37610;51.790;21.590;2023-08-31T12:10:03;3.30;;;1.30;;
51523;SDS011;37610;51.790;21.590;2023-08-31T12:14:17;3.10;;;1.40;;
51523;SDS011;37610;51.790;21.590;2023-08-31T12:18:20;3.70;;;1.20;;
51523;SDS011;37610;51.790;21.590;2023-08-31T12:22:22;1.70;;;1.20;;
51523;SDS011;37610;51.790;21.590;2023-08-31T12:26:23;5.10;;;1.20;;
51523;SDS011;37610;51.790;21.590;2023-08-31T12:30:25;3.10;;;1.20;;
51523;SDS011;37610;51.790;21.590;2023-08-31T12:34:27;2.60;;;1.20;;
51523;SDS011;37610;51.790;21.590;2023-08-31T12:38:28;2.60;;;1.20;;
51523;SDS011;37610;51.790;21.590;2023-08-31T12:42:29;2.40;;;1.00;;
51523;SDS011;37610;51.790;21.590;2023-08-31T12:46:31;4.90;;;1.40;;
51523;SDS011;37610;51.790;21.590;2023-08-31T12:50:33;3.00;;;1.30;;
51523;SDS011;37610;51.790;21.590;2023-08-31T12:54:34;3.90;;;1.20;;
51523;SDS011;37610;51.790;21.590;2023-08-31T12:58:36;4.70;;;4.20;;
51523;SDS011;37610;51.790;21.590;2023-08-31T13:02:38;4.00;;;3.70;;
51523;SDS011;37610;51.790;21.590;2023-08-31T13:06:40;3.70;;;1.40;;
51523;SDS011;37610;51.790;21.590;2023-08-31T13:10:42;3.20;;;1.50;;
51523;SDS011;37610;51.790;21.590;2023-08-31T13:14:44;2.70;;;1.30;;
51523;SDS011;37610;51.790;21.590;2023-08-31T13:18:46;4.90;;;1.40;;
51523;SDS011;37610;51.790;21.590;2023-08-31T13:22:47;4.90;;;1.60;;
51523;SDS011;37610;51.790;21.590;2023-08-31T13:26:49;5.30;;;2.50;;
51523;SDS011;37610;51.790;21.590;2023-08-31T13:30:55;5.30;;;1.70;;
51523;SDS011;37610;51.790;21.590;2023-08-31T13:34:58;4.60;;;4.20;;
51523;SDS011;37610;51.790;21.590;2023-08-31T13:38:59;5.40;;;1.80;;
51523;SDS011;37610;51.790;21.590;2023-08-31T13:43:01;3.70;;;3.00;;
51523;SDS011;37610;51.790;21.590;2023-08-31T13:47:04;4.60;;;1.50;;
51523;SDS011;37610;51.790;21.590;2023-08-31T13:51:07;3.50;;;1.20;;
51523;SDS011;37610;51.790;21.590;2023-08-31T13:55:08;2.70;;;1.20;;
51523;SDS011;37610;51.790;21.590;2023-08-31T13:59:10;4.00;;;1.40;;
51523;SDS011;37610;51.790;21.590;2023-08-31T14:03:12;2.00;;;1.50;;
51523;SDS011;37610;51.790;21.590;2023-08-31T14:07:13;2.90;;;1.40;;
51523;SDS011;37610;51.790;21.590;2023-08-31T14:15:16;3.00;;;1.60;;
51523;SDS011;37610;51.790;21.590;2023-08-31T14:19:18;4.70;;;1.10;;
51523;SDS011;37610;51.790;21.590;2023-08-31T14:23:21;4.80;;;1.60;;
51523;SDS011;37610;51.790;21.590;2023-08-31T14:27:22;1.40;;;1.20;;
51523;SDS011;37610;51.790;21.590;2023-08-31T14:31:24;3.80;;;1.70;;
51523;SDS011;37610;51.790;21.590;2023-08-31T14:35:26;7.20;;;1.50;;
51523;SDS011;37610;51.790;21.590;2023-08-31T14:39:28;4.60;;;1.40;;
51523;SDS011;37610;51.790;21.590;2023-08-31T14:43:33;4.00;;;1.90;;
51523;SDS011;37610;51.790;21.590;2023-08-31T14:47:35;8.00;;;2.30;;
51523;SDS011;37610;51.790;21.590;2023-08-31T14:51:36;4.00;;;2.10;;
51523;SDS011;37610;51.790;21.590;2023-08-31T14:55:38;3.60;;;2.10;;
51523;SDS011;37610;51.790;21.590;2023-08-31T14:59:39;6.10;;;2.30;;
51523;SDS011;37610;51.790;21.590;2023-08-31T15:03:41;8.20;;;2.10;;
51523;SDS011;37610;51.790;21.590;2023-08-31T15:07:42;7.30;;;2.10;;
51523;SDS011;37610;51.790;21.590;2023-08-31T15:11:44;11.10;;;2.20;;
51523;SDS011;37610;51.790;21.590;2023-08-31T15:15:45;3.60;;;2.20;;
51523;SDS011;37610;51.790;21.590;2023-08-31T15:19:47;4.90;;;2.60;;
51523;SDS011;37610;51.790;21.590;2023-08-31T15:27:50;6.50;;;2.60;;
51523;SDS011;37610;51.790;21.590;2023-08-31T15:31:53;6.10;;;3.20;;
51523;SDS011;37610;51.790;21.590;2023-08-31T15:36:07;6.50;;;2.00;;
51523;SDS011;37610;51.790;21.590;2023-08-31T15:40:09;6.00;;;2.40;;
51523;SDS011;37610;51.790;21.590;2023-08-31T15:44:11;2.70;;;2.50;;
51523;SDS011;37610;51.790;21.590;2023-08-31T15:48:13;4.50;;;3.70;;
51523;SDS011;37610;51.790;21.590;2023-08-31T15:52:14;6.00;;;3.20;;
51523;SDS011;37610;51.790;21.590;2023-08-31T15:56:16;2.80;;;2.60;;
51523;SDS011;37610;51.790;21.590;2023-08-31T16:00:18;4.10;;;3.00;;
51523;SDS011;37610;51.790;21.590;2023-08-31T16:04:23;3.10;;;2.50;;
51523;SDS011;37610;51.790;21.590;2023-08-31T16:08:24;2.90;;;2.20;;
51523;SDS011;37610;51.790;21.590;2023-08-31T16:12:26;5.20;;;2.30;;
51523;SDS011;37610;51.790;21.590;2023-08-31T16:16:28;10.20;;;2.70;;
51523;SDS011;37610;51.790;21.590;2023-08-31T16:20:29;4.20;;;2.10;;
51523;SDS011;37610;51.790;21.590;2023-08-31T16:24:31;3.80;;;2.70;;
51523;SDS011;37610;51.790;21.590;2023-08-31T16:28:32;6.40;;;3.00;;
51523;SDS011;37610;51.790;21.590;2023-08-31T16:32:34;3.50;;;2.30;;
51523;SDS011;37610;51.790;21.590;2023-08-31T16:36:35;3.50;;;2.50;;
51523;SDS011;37610;51.790;21.590;2023-08-31T16:40:37;6.00;;;3.70;;
51523;SDS011;37610;51.790;21.590;2023-08-31T16:44:39;9.10;;;5.20;;
51523;SDS011;37610;51.790;21.590;2023-08-31T16:48:40;5.70;;;3.90;;
51523;SDS011;37610;51.790;21.590;2023-08-31T16:52:42;10.40;;;4.70;;
51523;SDS011;37610;51.790;21.590;2023-08-31T16:56:45;4.50;;;3.00;;
51523;SDS011;37610;51.790;21.590;2023-08-31T17:00:49;10.20;;;8.80;;
51523;SDS011;37610;51.790;21.590;2023-08-31T17:04:50;7.20;;;3.00;;
51523;SDS011;37610;51.790;21.590;2023-08-31T17:08:52;3.60;;;2.80;;
51523;SDS011;37610;51.790;21.590;2023-08-31T17:12:53;5.90;;;3.10;;
51523;SDS011;37610;51.790;21.590;2023-08-31T17:16:55;4.60;;;2.90;;
51523;SDS011;37610;51.790;21.590;2023-08-31T17:21:01;2.90;;;2.50;;
51523;SDS011;37610;51.790;21.590;2023-08-31T17:25:05;7.10;;;2.90;;
51523;SDS011;37610;51.790;21.590;2023-08-31T17:29:06;4.80;;;3.10;;
51523;SDS011;37610;51.790;21.590;2023-08-31T17:33:08;4.60;;;3.00;;
51523;SDS011;37610;51.790;21.590;2023-08-31T17:37:09;6.80;;;3.10;;
51523;SDS011;37610;51.790;21.590;2023-08-31T17:41:11;5.20;;;3.00;;
51523;SDS011;37610;51.790;21.590;2023-08-31T17:45:13;5.30;;;3.70;;
51523;SDS011;37610;51.790;21.590;2023-08-31T17:49:14;4.90;;;3.40;;
51523;SDS011;37610;51.790;21.590;2023-08-31T17:53:16;5.80;;;3.40;;
51523;SDS011;37610;51.790;21.590;2023-08-31T17:57:18;4.50;;;3.50;;
51523;SDS011;37610;51.790;21.590;2023-08-31T18:01:20;9.00;;;5.30;;
51523;SDS011;37610;51.790;21.590;2023-08-31T18:05:22;10.80;;;5.70;;
51523;SDS011;37610;51.790;21.590;2023-08-31T18:09:23;10.10;;;5.80;;
51523;SDS011;37610;51.790;21.590;2023-08-31T18:13:31;8.30;;;4.50;;
51523;SDS011;37610;51.790;21.590;2023-08-31T18:17:32;7.90;;;4.00;;
51523;SDS011;37610;51.790;21.590;2023-08-31T18:21:34;7.00;;;4.50;;
51523;SDS011;37610;51.790;21.590;2023-08-31T18:25:36;9.40;;;4.60;;
51523;SDS011;37610;51.790;21.590;2023-08-31T18:29:37;11.60;;;5.80;;
51523;SDS011;37610;51.790;21.590;2023-08-31T18:33:39;15.20;;;6.10;;
51523;SDS011;37610;51.790;21.590;2023-08-31T18:37:40;24.90;;;13.70;;
51523;SDS011;37610;51.790;21.590;2023-08-31T18:41:42;17.50;;;9.70;;
51523;SDS011;37610;51.790;21.590;2023-08-31T18:45:44;12.60;;;7.60;;
51523;SDS011;37610;51.790;21.590;2023-08-31T18:49:48;10.30;;;6.90;;
51523;SDS011;37610;51.790;21.590;2023-08-31T18:53:50;6.80;;;4.30;;
51523;SDS011;37610;51.790;21.590;2023-08-31T18:57:52;5.50;;;3.80;;
51523;SDS011;37610;51.790;21.590;2023-08-31T19:01:53;7.10;;;3.90;;
51523;SDS011;37610;51.790;21.590;2023-08-31T19:05:55;8.00;;;3.70;;
51523;SDS011;37610;51.790;21.590;2023-08-31T19:09:57;4.80;;;3.40;;
51523;SDS011;37610;51.790;21.590;2023-08-31T19:13:58;5.70;;;3.90;;
51523;SDS011;37610;51.790;21.590;2023-08-31T19:18:00;8.70;;;4.80;;
51523;SDS011;37610;51.790;21.590;2023-08-31T19:22:01;7.10;;;4.10;;
51523;SDS011;37610;51.790;21.590;2023-08-31T19:26:04;10.20;;;4.60;;
51523;SDS011;37610;51.790;21.590;2023-08-31T19:30:09;11.40;;;8.30;;
51523;SDS011;37610;51.790;21.590;2023-08-31T19:34:11;8.80;;;5.80;;
51523;SDS011;37610;51.790;21.590;2023-08-31T19:38:12;8.10;;;5.00;;
51523;SDS011;37610;51.790;21.590;2023-08-31T19:42:17;8.70;;;5.20;;
51523;SDS011;37610;51.790;21.590;2023-08-31T19:46:18;7.20;;;5.40;;
51523;SDS011;37610;51.790;21.590;2023-08-31T19:54:23;11.30;;;8.40;;
51523;SDS011;37610;51.790;21.590;2023-08-31T19:58:25;11.20;;;7.80;;
51523;SDS011;37610;51.790;21.590;2023-08-31T20:02:26;9.20;;;7.60;;
51523;SDS011;37610;51.790;21.590;2023-08-31T20:06:28;15.30;;;10.40;;
51523;SDS011;37610;51.790;21.590;2023-08-31T20:10:30;16.50;;;13.60;;
51523;SDS011;37610;51.790;21.590;2023-08-31T20:14:32;25.00;;;16.00;;
51523;SDS011;37610;51.790;21.590;2023-08-31T20:18:33;10.40;;;7.60;;
51523;SDS011;37610;51.790;21.590;2023-08-31T20:22:35;7.50;;;5.10;;
51523;SDS011;37610;51.790;21.590;2023-08-31T20:26:37;6.30;;;4.70;;
51523;SDS011;37610;51.790;21.590;2023-08-31T20:30:38;13.80;;;6.50;;
51523;SDS011;37610;51.790;21.590;2023-08-31T20:34:40;7.60;;;5.50;;
51523;SDS011;37610;51.790;21.590;2023-08-31T20:38:47;5.10;;;3.90;;
51523;SDS011;37610;51.790;21.590;2023-08-31T20:42:50;5.80;;;3.90;;
51523;SDS011;37610;51.790;21.590;2023-08-31T20:46:55;6.80;;;3.40;;
51523;SDS011;37610;51.790;21.590;2023-08-31T20:51:02;6.30;;;4.10;;
51523;SDS011;37610;51.790;21.590;2023-08-31T20:55:05;8.20;;;4.90;;
51523;SDS011;37610;51.790;21.590;2023-08-31T20:59:09;5.70;;;3.80;;
51523;SDS011;37610;51.790;21.590;2023-08-31T21:03:12;8.90;;;5.30;;
51523;SDS011;37610;51.790;21.590;2023-08-31T21:07:13;9.70;;;5.50;;
51523;SDS011;37610;51.790;21.590;2023-08-31T21:11:15;8.10;;;5.80;;
51523;SDS011;37610;51.790;21.590;2023-08-31T21:15:17;5.70;;;4.30;;
51523;SDS011;37610;51.790;21.590;2023-08-31T21:19:18;9.30;;;3.80;;
51523;SDS011;37610;51.790;21.590;2023-08-31T21:23:20;5.70;;;4.20;;
51523;SDS011;37610;51.790;21.590;2023-08-31T21:27:21;5.60;;;4.50;;
51523;SDS011;37610;51.790;21.590;2023-08-31T21:31:23;5.90;;;3.40;;
51523;SDS011;37610;51.790;21.590;2023-08-31T21:35:24;9.80;;;3.90;;
51523;SDS011;37610;51.790;21.590;2023-08-31T21:39:26;5.90;;;4.10;;
51523;SDS011;37610;51.790;21.590;2023-08-31T21:43:27;6.50;;;4.70;;
51523;SDS011;37610;51.790;21.590;2023-08-31T21:47:29;5.90;;;4.00;;
51523;SDS011;37610;51.790;21.590;2023-08-31T21:51:30;5.60;;;3.80;;
51523;SDS011;37610;51.790;21.590;2023-08-31T21:55:32;5.30;;;3.90;;
51523;SDS011;37610;51.790;21.590;2023-08-31T21:59:34;6.90;;;4.30;;
51523;SDS011;37610;51.790;21.590;2023-08-31T22:03:36;7.30;;;3.70;;
51523;SDS011;37610;51.790;21.590;2023-08-31T22:07:37;6.90;;;3.70;;
51523;SDS011;37610;51.790;21.590;2023-08-31T22:11:40;6.40;;;3.70;;
51523;SDS011;37610;51.790;21.590;2023-08-31T22:15:41;6.10;;;3.90;;
51523;SDS011;37610;51.790;21.590;2023-08-31T22:19:46;6.00;;;3.60;;
51523;SDS011;37610;51.790;21.590;2023-08-31T22:23:47;3.60;;;3.20;;
51523;SDS011;37610;51.790;21.590;2023-08-31T22:27:49;7.90;;;4.10;;
51523;SDS011;37610;51.790;21.590;2023-08-31T22:31:52;5.00;;;3.50;;
51523;SDS011;37610;51.790;21.590;2023-08-31T22:35:54;6.50;;;4.60;;
51523;SDS011;37610;51.790;21.590;2023-08-31T22:39:56;6.30;;;4.00;;
51523;SDS011;37610;51.790;21.590;2023-08-31T22:43:57;7.20;;;3.30;;
51523;SDS011;37610;51.790;21.590;2023-08-31T22:47:59;6.00;;;3.80;;
51523;SDS011;37610;51.790;21.590;2023-08-31T22:52:00;4.30;;;3.40;;
51523;SDS011;37610;51.790;21.590;2023-08-31T22:56:04;7.40;;;3.70;;
51523;SDS011;37610;51.790;21.590;2023-08-31T23:00:06;5.30;;;3.80;;
51523;SDS011;37610;51.790;21.590;2023-08-31T23:04:08;6.10;;;4.10;;
51523;SDS011;37610;51.790;21.590;2023-08-31T23:08:10;4.90;;;3.80;;
51523;SDS011;37610;51.790;21.590;2023-08-31T23:12:11;8.00;;;3.90;;
51523;SDS011;37610;51.790;21.590;2023-08-31T23:16:14;6.00;;;3.70;;
51523;SDS011;37610;51.790;21.590;2023-08-31T23:20:15;5.30;;;4.20;;
51523;SDS011;37610;51.790;21.590;2023-08-31T23:24:17;4.90;;;4.10;;
51523;SDS011;37610;51.790;21.590;2023-08-31T23:28:18;7.80;;;4.50;;
51523;SDS011;37610;51.790;21.590;2023-08-31T23:32:20;6.70;;;4.50;;
51523;SDS011;37610;51.790;21.590;2023-08-31T23:36:21;8.80;;;4.60;;
51523;SDS011;37610;51.790;21.590;2023-08-31T23:40:23;5.80;;;3.60;;
51523;SDS011;37610;51.790;21.590;2023-08-31T23:44:24;5.70;;;4.40;;
51523;SDS011;37610;51.790;21.590;2023-08-31T23:48:26;7.30;;;4.50;;
51523;SDS011;37610;51.790;21.590;2023-08-31T23:52:27;11.20;;;4.30;;
51523;SDS011;37610;51.790;21.590;2023-08-31T23:56:29;8.80;;;4.60;;
